Time,TemperatureF,DewpointF,PressureIn,WindDirection,WindDirectionDegrees,WindSpeedMPH,WindSpeedGustMPH,Humidity,HourlyPrecipIn,Conditions,Clouds,dailyrainin,SoftwareType,DateUTC
2013-03-02 00:00:00,25.2,22.6,-100.00,WNW,284,3.0,9.0,90,0.00,,,0.00,meteohub,2013-03-02 06:00:00,
2013-03-02 00:05:00,25.2,22.6,-100.00,NW,309,2.0,9.0,90,0.00,,,0.00,meteohub,2013-03-02 06:05:00,
2013-03-02 00:09:00,25.2,22.6,-100.00,WNW,302,3.0,9.0,90,0.00,,,0.00,meteohub,2013-03-02 06:09:00,
2013-03-02 00:15:00,25.2,22.6,-100.00,NW,304,3.0,9.0,90,0.00,,,0.00,meteohub,2013-03-02 06:15:00,
2013-03-02 00:20:00,25.0,22.5,-100.00,WNW,299,0.0,9.0,90,0.00,,,0.00,meteohub,2013-03-02 06:20:00,
2013-03-02 00:25:00,25.0,22.5,-100.00,WNW,303,3.0,6.0,90,0.00,,,0.00,meteohub,2013-03-02 06:25:00,
2013-03-02 00:30:00,25.0,22.5,-100.00,WNW,298,1.0,6.0,90,0.00,,,0.00,meteohub,2013-03-02 06:30:00,
2013-03-02 00:32:00,25.0,22.5,-100.00,WNW,300,4.0,6.0,90,0.00,,,0.00,meteohub,2013-03-02 06:32:00,
2013-03-02 00:37:00,25.0,22.5,-100.00,WNW,302,4.0,6.0,90,0.00,,,0.00,meteohub,2013-03-02 06:37:00,
2013-03-02 00:42:00,25.0,22.5,-100.00,WNW,300,3.0,9.0,90,0.00,,,0.00,meteohub,2013-03-02 06:42:00,
2013-03-02 00:47:00,25.0,22.5,-100.00,NW,306,3.0,10.0,90,0.00,,,0.00,meteohub,2013-03-02 06:47:00,
2013-03-02 00:51:00,25.0,22.6,-100.00,NW,315,3.0,10.0,91,0.00,,,0.00,meteohub,2013-03-02 06:51:00,
2013-03-02 00:56:00,25.0,22.6,-100.00,NW,322,4.0,10.0,91,0.00,,,0.00,meteohub,2013-03-02 06:56:00,
2013-03-02 01:02:00,25.0,22.6,-100.00,NW,307,2.0,5.0,91,0.00,,,0.00,meteohub,2013-03-02 07:02:00,
2013-03-02 01:07:00,25.0,22.6,-100.00,NW,304,2.0,6.0,91,0.00,,,0.00,meteohub,2013-03-02 07:07:00,
2013-03-02 01:12:00,25.0,22.6,-100.00,NW,306,0.0,6.0,91,0.00,,,0.00,meteohub,2013-03-02 07:12:00,
2013-03-02 01:17:00,25.2,22.8,-100.00,NW,304,6.0,6.0,91,0.00,,,0.00,meteohub,2013-03-02 07:17:00,
2013-03-02 01:22:00,25.2,22.8,-100.00,NW,313,2.0,9.0,91,0.00,,,0.00,meteohub,2013-03-02 07:22:00,
2013-03-02 01:27:00,25.2,22.6,-100.00,NW,313,4.0,9.0,90,0.00,,,0.00,meteohub,2013-03-02 07:27:00,
2013-03-02 01:32:00,25.2,22.6,-100.00,NW,305,0.0,9.0,90,0.00,,,0.00,meteohub,2013-03-02 07:32:00,
2013-03-02 01:37:00,25.2,22.6,-100.00,WNW,303,5.0,6.0,90,0.00,,,0.00,meteohub,2013-03-02 07:37:00,
2013-03-02 01:42:00,25.2,22.8,-100.00,WNW,302,0.0,7.0,91,0.00,,,0.00,meteohub,2013-03-02 07:42:00,
2013-03-02 01:47:00,25.0,22.6,-100.00,WNW,292,3.0,7.0,91,0.00,,,0.00,meteohub,2013-03-02 07:47:00,
2013-03-02 01:52:00,25.0,22.5,-100.00,WNW,302,0.0,7.0,90,0.00,,,0.00,meteohub,2013-03-02 07:52:00,
2013-03-02 01:56:00,25.0,22.5,-100.00,NW,307,4.0,7.0,90,0.00,,,0.00,meteohub,2013-03-02 07:56:00,
2013-03-02 02:02:00,25.0,22.5,-100.00,WNW,299,2.0,10.0,90,0.00,,,0.00,meteohub,2013-03-02 08:02:00,
2013-03-02 02:07:00,25.0,22.5,-100.00,NW,307,2.0,10.0,90,0.00,,,0.00,meteohub,2013-03-02 08:07:00,
2013-03-02 02:12:00,24.6,22.1,-100.00,NW,306,3.0,7.0,90,0.00,,,0.00,meteohub,2013-03-02 08:12:00,
2013-03-02 02:17:00,24.6,22.1,-100.00,WNW,301,1.0,7.0,90,0.00,,,0.00,meteohub,2013-03-02 08:17:00,
2013-03-02 02:21:00,24.6,22.1,-100.00,WNW,299,6.0,7.0,90,0.00,,,0.00,meteohub,2013-03-02 08:21:00,
2013-03-02 02:25:00,24.6,22.1,-100.00,WNW,292,4.0,12.0,90,0.00,,,0.00,meteohub,2013-03-02 08:25:00,
2013-03-02 02:30:00,24.8,22.3,-100.00,NW,316,4.0,12.0,90,0.00,,,0.00,meteohub,2013-03-02 08:30:00,
2013-03-02 02:35:00,24.8,22.3,-100.00,WNW,296,3.0,12.0,90,0.00,,,0.00,meteohub,2013-03-02 08:35:00,
2013-03-02 02:40:00,25.0,22.5,-100.00,NW,315,7.0,12.0,90,0.00,,,0.00,meteohub,2013-03-02 08:40:00,
2013-03-02 02:45:00,25.0,22.5,-100.00,WNW,302,4.0,12.0,90,0.00,,,0.00,meteohub,2013-03-02 08:45:00,
2013-03-02 02:50:00,24.8,22.3,-100.00,NW,306,4.0,10.0,90,0.00,,,0.00,meteohub,2013-03-02 08:50:00,
2013-03-02 02:55:00,24.8,22.3,-100.00,NW,311,2.0,10.0,90,0.00,,,0.00,meteohub,2013-03-02 08:55:00,
2013-03-02 03:00:00,24.8,22.3,-100.00,NW,315,10.0,12.0,90,0.00,,,0.00,meteohub,2013-03-02 09:00:00,
2013-03-02 03:05:00,24.8,22.3,-100.00,WNW,296,4.0,12.0,90,0.00,,,0.00,meteohub,2013-03-02 09:05:00,
2013-03-02 03:10:00,24.8,22.1,-100.00,NW,313,4.0,12.0,89,0.00,,,0.00,meteohub,2013-03-02 09:10:00,
2013-03-02 03:15:00,24.8,22.1,-100.00,NW,309,4.0,11.0,89,0.00,,,0.00,meteohub,2013-03-02 09:15:00,
2013-03-02 03:20:00,24.8,22.1,-100.00,WNW,292,1.0,10.0,89,0.00,,,0.00,meteohub,2013-03-02 09:20:00,
2013-03-02 03:25:00,24.8,22.1,-100.00,WNW,300,3.0,10.0,89,0.00,,,0.00,meteohub,2013-03-02 09:25:00,
2013-03-02 03:30:00,24.6,21.9,-100.00,NW,304,2.0,10.0,89,0.00,,,0.00,meteohub,2013-03-02 09:30:00,
2013-03-02 03:35:00,24.8,22.1,-100.00,NW,304,2.0,6.0,89,0.00,,,0.00,meteohub,2013-03-02 09:35:00,
2013-03-02 03:40:00,24.6,21.9,-100.00,NW,307,3.0,6.0,89,0.00,,,0.00,meteohub,2013-03-02 09:40:00,
2013-03-02 03:45:00,24.6,21.6,-100.00,NW,311,3.0,7.0,88,0.00,,,0.00,meteohub,2013-03-02 09:45:00,
2013-03-02 03:50:00,24.6,21.6,-100.00,WNW,298,5.0,7.0,88,0.00,,,0.00,meteohub,2013-03-02 09:50:00,
2013-03-02 03:55:00,24.6,21.6,-100.00,NW,309,3.0,6.0,88,0.00,,,0.00,meteohub,2013-03-02 09:55:00,
2013-03-02 04:00:00,24.4,21.4,-100.00,NW,309,1.0,6.0,88,0.00,,,0.00,meteohub,2013-03-02 10:00:00,
2013-03-02 04:05:00,24.4,21.4,-100.00,WNW,299,4.0,11.0,88,0.00,,,0.00,meteohub,2013-03-02 10:05:00,
2013-03-02 04:10:00,24.4,21.4,-100.00,NW,309,3.0,11.0,88,0.00,,,0.00,meteohub,2013-03-02 10:10:00,
2013-03-02 04:12:00,24.4,21.4,-100.00,NW,307,5.0,11.0,88,0.00,,,0.00,meteohub,2013-03-02 10:12:00,
2013-03-02 04:17:00,24.4,21.4,-100.00,NW,309,7.0,7.0,88,0.00,,,0.00,meteohub,2013-03-02 10:17:00,
2013-03-02 04:22:00,24.3,21.0,-100.00,NW,314,2.0,10.0,87,0.00,,,0.00,meteohub,2013-03-02 10:22:00,
2013-03-02 04:27:00,24.3,21.0,-100.00,NW,309,1.0,10.0,87,0.00,,,0.00,meteohub,2013-03-02 10:27:00,
2013-03-02 04:32:00,24.1,20.8,-100.00,WNW,302,3.0,8.0,87,0.00,,,0.00,meteohub,2013-03-02 10:32:00,
2013-03-02 04:37:00,24.1,20.8,-100.00,NW,306,5.0,7.0,87,0.00,,,0.00,meteohub,2013-03-02 10:37:00,
2013-03-02 04:42:00,24.1,20.8,-100.00,NW,304,2.0,7.0,87,0.00,,,0.00,meteohub,2013-03-02 10:42:00,
2013-03-02 04:47:00,24.1,20.8,-100.00,NW,307,3.0,7.0,87,0.00,,,0.00,meteohub,2013-03-02 10:47:00,
2013-03-02 04:52:00,23.9,20.7,-100.00,NW,310,3.0,7.0,87,0.00,,,0.00,meteohub,2013-03-02 10:52:00,
2013-03-02 04:57:00,23.9,20.7,-100.00,NW,306,2.0,7.0,87,0.00,,,0.00,meteohub,2013-03-02 10:57:00,
2013-03-02 05:02:00,23.9,20.7,-100.00,NW,304,2.0,7.0,87,0.00,,,0.00,meteohub,2013-03-02 11:02:00,
2013-03-02 05:07:00,23.9,20.7,-100.00,WNW,300,3.0,7.0,87,0.00,,,0.00,meteohub,2013-03-02 11:07:00,
2013-03-02 05:12:00,23.9,20.7,-100.00,NW,313,2.0,6.0,87,0.00,,,0.00,meteohub,2013-03-02 11:12:00,
2013-03-02 05:17:00,23.9,20.7,-100.00,NW,311,2.0,6.0,87,0.00,,,0.00,meteohub,2013-03-02 11:17:00,
2013-03-02 05:22:00,23.9,20.7,-100.00,NW,310,4.0,6.0,87,0.00,,,0.00,meteohub,2013-03-02 11:22:00,
2013-03-02 05:27:00,23.9,20.7,-100.00,WNW,302,2.0,6.0,87,0.00,,,0.00,meteohub,2013-03-02 11:27:00,
2013-03-02 05:32:00,24.1,20.5,-100.00,WNW,300,4.0,6.0,86,0.00,,,0.00,meteohub,2013-03-02 11:32:00,
2013-03-02 05:37:00,24.1,20.5,-100.00,NW,308,5.0,9.0,86,0.00,,,0.00,meteohub,2013-03-02 11:37:00,
2013-03-02 05:42:00,24.1,20.5,-100.00,WNW,302,3.0,9.0,86,0.00,,,0.00,meteohub,2013-03-02 11:42:00,
2013-03-02 05:47:00,24.1,20.5,-100.00,NW,319,10.0,10.0,86,0.00,,,0.00,meteohub,2013-03-02 11:47:00,
2013-03-02 05:52:00,24.1,20.5,-100.00,NW,310,2.0,10.0,86,0.00,,,0.00,meteohub,2013-03-02 11:52:00,
2013-03-02 05:57:00,24.1,20.5,-100.00,WNW,299,6.0,10.0,86,0.00,,,0.00,meteohub,2013-03-02 11:57:00,
2013-03-02 06:02:00,24.1,20.3,-100.00,NW,309,2.0,10.0,85,0.00,,,0.00,meteohub,2013-03-02 12:02:00,
2013-03-02 06:07:00,24.1,20.3,-100.00,WNW,296,0.0,7.0,85,0.00,,,0.00,meteohub,2013-03-02 12:07:00,
2013-03-02 06:12:00,24.1,20.3,-100.00,NW,314,4.0,6.0,85,0.00,,,0.00,meteohub,2013-03-02 12:12:00,
2013-03-02 06:17:00,24.1,20.3,-100.00,NW,304,2.0,5.0,85,0.00,,,0.00,meteohub,2013-03-02 12:17:00,
2013-03-02 06:22:00,24.1,20.3,-100.00,WNW,289,4.0,7.0,85,0.00,,,0.00,meteohub,2013-03-02 12:22:00,
2013-03-02 06:27:00,24.1,19.9,-100.00,WNW,302,3.0,7.0,84,0.00,,,0.00,meteohub,2013-03-02 12:27:00,
2013-03-02 06:32:00,24.1,19.9,-100.00,WNW,292,5.0,10.0,84,0.00,,,0.00,meteohub,2013-03-02 12:32:00,
2013-03-02 06:37:00,24.1,19.9,-100.00,NW,310,7.0,10.0,84,0.00,,,0.00,meteohub,2013-03-02 12:37:00,
2013-03-02 06:42:00,24.1,19.9,-100.00,WNW,302,4.0,7.0,84,0.00,,,0.00,meteohub,2013-03-02 12:42:00,
2013-03-02 06:47:00,24.1,19.9,-100.00,NW,324,6.0,9.0,84,0.00,,,0.00,meteohub,2013-03-02 12:47:00,
2013-03-02 06:52:00,24.1,19.9,-100.00,WNW,296,3.0,9.0,84,0.00,,,0.00,meteohub,2013-03-02 12:52:00,
2013-03-02 06:59:00,24.1,19.9,-100.00,NW,306,3.0,9.0,84,0.00,,,0.00,meteohub,2013-03-02 12:59:00,
2013-03-02 07:04:00,24.1,19.8,-100.00,NW,311,3.0,9.0,83,0.00,,,0.00,meteohub,2013-03-02 13:04:00,
2013-03-02 07:09:00,24.3,19.8,-100.00,NW,320,7.0,7.0,83,0.00,,,0.00,meteohub,2013-03-02 13:09:00,
2013-03-02 07:14:00,24.3,19.8,-100.00,NW,304,3.0,9.0,83,0.00,,,0.00,meteohub,2013-03-02 13:14:00,
2013-03-02 07:19:00,24.3,19.8,-100.00,WNW,282,3.0,11.0,83,0.00,,,0.00,meteohub,2013-03-02 13:19:00,
2013-03-02 07:24:00,24.3,19.8,-100.00,WNW,292,2.0,11.0,83,0.00,,,0.00,meteohub,2013-03-02 13:24:00,
2013-03-02 07:29:00,24.4,19.8,-100.00,NW,304,1.0,11.0,82,0.00,,,0.00,meteohub,2013-03-02 13:29:00,
2013-03-02 07:34:00,25.0,20.3,-100.00,WNW,297,2.0,7.0,82,0.00,,,0.00,meteohub,2013-03-02 13:34:00,
2013-03-02 07:39:00,25.3,20.3,-100.00,WNW,292,4.0,11.0,81,0.00,,,0.00,meteohub,2013-03-02 13:39:00,
2013-03-02 07:44:00,25.5,20.3,-100.00,WNW,295,2.0,11.0,80,0.00,,,0.00,meteohub,2013-03-02 13:44:00,
2013-03-02 07:49:00,25.9,20.3,-100.00,WNW,296,7.0,11.0,79,0.00,,,0.00,meteohub,2013-03-02 13:49:00,
2013-03-02 07:54:00,26.1,20.1,-100.00,NW,304,8.0,10.0,78,0.00,,,0.00,meteohub,2013-03-02 13:54:00,
2013-03-02 07:59:00,26.2,20.3,-100.00,WNW,295,4.0,13.0,78,0.00,,,0.00,meteohub,2013-03-02 13:59:00,
2013-03-02 08:04:00,26.4,20.5,-100.00,West,260,3.0,13.0,78,0.00,,,0.00,meteohub,2013-03-02 14:04:00,
2013-03-02 08:09:00,26.4,20.1,-100.00,NW,310,5.0,12.0,77,0.00,,,0.00,meteohub,2013-03-02 14:09:00,
2013-03-02 08:14:00,26.6,20.3,-100.00,WNW,291,4.0,13.0,77,0.00,,,0.00,meteohub,2013-03-02 14:14:00,
2013-03-02 08:19:00,27.0,20.7,-100.00,WNW,301,5.0,14.0,77,0.00,,,0.00,meteohub,2013-03-02 14:19:00,
2013-03-02 08:24:00,26.8,20.3,-100.00,WNW,301,5.0,14.0,76,0.00,,,0.00,meteohub,2013-03-02 14:24:00,
2013-03-02 08:29:00,27.0,20.5,-100.00,NW,307,12.0,14.0,76,0.00,,,0.00,meteohub,2013-03-02 14:29:00,
2013-03-02 08:34:00,27.1,20.3,-100.00,WNW,300,4.0,14.0,75,0.00,,,0.00,meteohub,2013-03-02 14:34:00,
2013-03-02 08:39:00,27.3,20.5,-100.00,NW,306,4.0,14.0,75,0.00,,,0.00,meteohub,2013-03-02 14:39:00,
2013-03-02 08:44:00,27.1,19.9,-100.00,NW,313,8.0,16.0,74,0.00,,,0.00,meteohub,2013-03-02 14:44:00,
2013-03-02 08:49:00,27.1,19.9,-100.00,WNW,301,4.0,16.0,74,0.00,,,0.00,meteohub,2013-03-02 14:49:00,
2013-03-02 08:54:00,27.3,20.1,-100.00,NW,315,6.0,16.0,74,0.00,,,0.00,meteohub,2013-03-02 14:54:00,
2013-03-02 08:59:00,27.5,19.9,-100.00,WNW,292,6.0,14.0,73,0.00,,,0.00,meteohub,2013-03-02 14:59:00,
2013-03-02 09:04:00,27.3,19.8,-100.00,NW,309,5.0,14.0,73,0.00,,,0.00,meteohub,2013-03-02 15:04:00,
2013-03-02 09:09:00,27.1,19.6,-100.00,NW,310,7.0,15.0,73,0.00,,,0.00,meteohub,2013-03-02 15:09:00,
2013-03-02 09:14:00,27.9,20.3,-100.00,WNW,297,9.0,18.0,73,0.00,,,0.00,meteohub,2013-03-02 15:14:00,
2013-03-02 09:19:00,28.4,20.5,-100.00,NNW,345,11.0,18.0,72,0.00,,,0.00,meteohub,2013-03-02 15:19:00,
2013-03-02 09:24:00,28.6,20.7,-100.00,NW,310,6.0,17.0,72,0.00,,,0.00,meteohub,2013-03-02 15:24:00,
2013-03-02 09:29:00,28.6,20.3,-100.00,NW,309,7.0,17.0,71,0.00,,,0.00,meteohub,2013-03-02 15:29:00,
2013-03-02 09:34:00,28.4,20.1,-100.00,WNW,296,3.0,17.0,71,0.00,,,0.00,meteohub,2013-03-02 15:34:00,
2013-03-02 09:39:00,28.6,20.1,-100.00,NW,309,6.0,17.0,70,0.00,,,0.00,meteohub,2013-03-02 15:39:00,
2013-03-02 09:44:00,28.4,20.1,-100.00,NNW,327,7.0,18.0,71,0.00,,,0.00,meteohub,2013-03-02 15:44:00,
2013-03-02 09:49:00,28.4,20.1,-100.00,NW,319,9.0,18.0,71,0.00,,,0.00,meteohub,2013-03-02 15:49:00,
2013-03-02 09:54:00,28.6,20.1,-100.00,NW,304,5.0,18.0,70,0.00,,,0.00,meteohub,2013-03-02 15:54:00,
2013-03-02 10:00:00,28.8,20.3,-100.00,NW,304,5.0,16.0,70,0.00,,,0.00,meteohub,2013-03-02 16:00:00,
2013-03-02 10:05:00,29.1,20.5,-100.00,WNW,297,3.0,16.0,70,0.00,,,0.00,meteohub,2013-03-02 16:05:00,
2013-03-02 10:10:00,29.5,20.7,-100.00,West,275,5.0,16.0,69,0.00,,,0.00,meteohub,2013-03-02 16:10:00,
2013-03-02 10:15:00,29.8,20.3,-100.00,NW,311,10.0,15.0,67,0.00,,,0.00,meteohub,2013-03-02 16:15:00,
2013-03-02 10:20:00,29.5,20.3,-100.00,WNW,297,5.0,13.0,68,0.00,,,0.00,meteohub,2013-03-02 16:20:00,
2013-03-02 10:25:00,29.1,19.9,-100.00,WNW,297,4.0,17.0,68,0.00,,,0.00,meteohub,2013-03-02 16:25:00,
2013-03-02 10:30:00,29.8,20.7,-100.00,WNW,292,3.0,17.0,68,0.00,,,0.00,meteohub,2013-03-02 16:30:00,
2013-03-02 10:35:00,30.2,20.5,-100.00,WNW,301,5.0,15.0,67,0.00,,,0.00,meteohub,2013-03-02 16:35:00,
2013-03-02 10:40:00,30.2,20.5,-100.00,NW,322,10.0,14.0,67,0.00,,,0.00,meteohub,2013-03-02 16:40:00,
2013-03-02 10:45:00,30.0,20.5,-100.00,WNW,294,4.0,16.0,67,0.00,,,0.00,meteohub,2013-03-02 16:45:00,
2013-03-02 10:50:00,30.6,21.2,-100.00,WSW,256,4.0,16.0,68,0.00,,,0.00,meteohub,2013-03-02 16:50:00,
2013-03-02 10:55:00,30.9,21.2,-100.00,WSW,242,2.0,16.0,67,0.00,,,0.00,meteohub,2013-03-02 16:55:00,
2013-03-02 11:00:00,31.3,21.2,-100.00,NW,313,9.0,14.0,66,0.00,,,0.00,meteohub,2013-03-02 17:00:00,
2013-03-02 11:05:00,31.3,21.2,-100.00,WNW,299,5.0,14.0,66,0.00,,,0.00,meteohub,2013-03-02 17:05:00,
2013-03-02 11:10:00,31.3,21.2,-100.00,WNW,286,3.0,13.0,66,0.00,,,0.00,meteohub,2013-03-02 17:10:00,
2013-03-02 11:15:00,31.5,21.4,-100.00,WNW,303,3.0,13.0,66,0.00,,,0.00,meteohub,2013-03-02 17:15:00,
2013-03-02 11:20:00,31.5,20.7,-100.00,NW,310,7.0,11.0,64,0.00,,,0.00,meteohub,2013-03-02 17:20:00,
2013-03-02 11:25:00,30.9,20.1,-100.00,NW,313,7.0,15.0,64,0.00,,,0.00,meteohub,2013-03-02 17:25:00,
2013-03-02 11:30:00,30.6,20.1,-100.00,WNW,302,4.0,15.0,65,0.00,,,0.00,meteohub,2013-03-02 17:30:00,
2013-03-02 11:35:00,30.6,19.8,-100.00,NW,323,10.0,15.0,64,0.00,,,0.00,meteohub,2013-03-02 17:35:00,
2013-03-02 11:40:00,30.7,20.3,-100.00,NW,307,5.0,14.0,65,0.00,,,0.00,meteohub,2013-03-02 17:40:00,
2013-03-02 11:45:00,30.9,20.8,-100.00,West,271,2.0,14.0,66,0.00,,,0.00,meteohub,2013-03-02 17:45:00,
2013-03-02 11:50:00,31.5,20.7,-100.00,WNW,300,7.0,14.0,64,0.00,,,0.00,meteohub,2013-03-02 17:50:00,
2013-03-02 11:55:00,31.8,20.7,-100.00,NW,306,13.0,14.0,63,0.00,,,0.00,meteohub,2013-03-02 17:55:00,
2013-03-02 12:00:00,31.5,19.9,-100.00,NNW,343,9.0,15.0,62,0.00,,,0.00,meteohub,2013-03-02 18:00:00,
2013-03-02 12:05:00,31.3,19.8,-100.00,WNW,296,7.0,17.0,62,0.00,,,0.00,meteohub,2013-03-02 18:05:00,
2013-03-02 12:10:00,31.3,19.8,-100.00,WNW,298,4.0,17.0,62,0.00,,,0.00,meteohub,2013-03-02 18:10:00,
2013-03-02 12:15:00,31.5,20.3,-100.00,West,278,3.0,17.0,63,0.00,,,0.00,meteohub,2013-03-02 18:15:00,
2013-03-02 12:20:00,31.8,20.7,-100.00,NW,325,9.0,16.0,63,0.00,,,0.00,meteohub,2013-03-02 18:20:00,
2013-03-02 12:25:00,32.0,20.1,-100.00,WNW,303,3.0,16.0,61,0.00,,,0.00,meteohub,2013-03-02 18:25:00,
2013-03-02 12:30:00,31.5,18.9,-100.00,NW,306,5.0,16.0,59,0.00,,,0.00,meteohub,2013-03-02 18:30:00,
2013-03-02 12:35:00,31.6,19.4,-100.00,NW,306,13.0,16.0,60,0.00,,,0.00,meteohub,2013-03-02 18:35:00,
2013-03-02 12:40:00,31.5,18.9,-100.00,WNW,301,4.0,16.0,59,0.00,,,0.00,meteohub,2013-03-02 18:40:00,
2013-03-02 12:45:00,31.3,19.0,-100.00,NE,56,5.0,14.0,60,0.00,,,0.00,meteohub,2013-03-02 18:45:00,
2013-03-02 12:50:00,31.1,18.1,-100.00,NNW,342,11.0,14.0,58,0.00,,,0.00,meteohub,2013-03-02 18:50:00,
2013-03-02 12:55:00,31.1,18.5,-100.00,NNW,336,7.0,18.0,59,0.00,,,0.00,meteohub,2013-03-02 18:55:00,
2013-03-02 13:00:00,31.5,18.3,-100.00,WNW,284,3.0,18.0,58,0.00,,,0.00,meteohub,2013-03-02 19:00:00,
2013-03-02 13:05:00,31.3,18.1,-100.00,WNW,295,6.0,18.0,58,0.00,,,0.00,meteohub,2013-03-02 19:05:00,
2013-03-02 13:10:00,31.3,18.7,-100.00,NW,314,11.0,14.0,59,0.00,,,0.00,meteohub,2013-03-02 19:10:00,
2013-03-02 13:15:00,31.5,18.9,-100.00,NW,323,7.0,13.0,59,0.00,,,0.00,meteohub,2013-03-02 19:15:00,
2013-03-02 13:20:00,31.3,18.1,-100.00,NW,313,4.0,12.0,58,0.00,,,0.00,meteohub,2013-03-02 19:20:00,
2013-03-02 13:25:00,31.3,18.1,-100.00,NNW,343,6.0,15.0,58,0.00,,,0.00,meteohub,2013-03-02 19:25:00,
2013-03-02 13:30:00,31.5,19.2,-100.00,NNW,334,7.0,15.0,60,0.00,,,0.00,meteohub,2013-03-02 19:30:00,
2013-03-02 13:35:00,31.3,17.8,-100.00,NNW,333,9.0,10.0,57,0.00,,,0.00,meteohub,2013-03-02 19:35:00,
2013-03-02 13:41:00,31.5,18.3,-100.00,NW,311,4.0,12.0,58,0.00,,,0.00,meteohub,2013-03-02 19:41:00,
2013-03-02 13:46:00,31.8,18.3,-100.00,NW,317,5.0,13.0,57,0.00,,,0.00,meteohub,2013-03-02 19:46:00,
2013-03-02 13:51:00,31.8,18.3,-100.00,NW,317,6.0,13.0,57,0.00,,,0.00,meteohub,2013-03-02 19:51:00,
2013-03-02 13:56:00,31.8,18.7,-100.00,NNW,327,7.0,14.0,58,0.00,,,0.00,meteohub,2013-03-02 19:56:00,
2013-03-02 14:01:00,31.5,17.6,-100.00,NW,311,10.0,14.0,56,0.00,,,0.00,meteohub,2013-03-02 20:01:00,
2013-03-02 14:06:00,31.3,17.4,-100.00,North,0,6.0,13.0,56,0.00,,,0.00,meteohub,2013-03-02 20:06:00,
2013-03-02 14:11:00,31.3,18.1,-100.00,NNW,337,6.0,15.0,58,0.00,,,0.00,meteohub,2013-03-02 20:11:00,
2013-03-02 14:16:00,31.5,18.0,-100.00,NNW,329,10.0,15.0,57,0.00,,,0.00,meteohub,2013-03-02 20:16:00,
2013-03-02 14:21:00,31.5,18.0,-100.00,NW,323,2.0,15.0,57,0.00,,,0.00,meteohub,2013-03-02 20:21:00,
2013-03-02 14:26:00,31.5,17.6,-100.00,NNW,346,5.0,15.0,56,0.00,,,0.00,meteohub,2013-03-02 20:26:00,
2013-03-02 14:31:00,31.6,18.5,-100.00,NW,323,6.0,15.0,58,0.00,,,0.00,meteohub,2013-03-02 20:31:00,
2013-03-02 14:36:00,32.0,18.9,-100.00,NNW,327,2.0,15.0,58,0.00,,,0.00,meteohub,2013-03-02 20:36:00,
2013-03-02 14:41:00,31.8,18.0,-100.00,NW,307,3.0,14.0,56,0.00,,,0.00,meteohub,2013-03-02 20:41:00,
2013-03-02 14:46:00,31.6,18.1,-100.00,WNW,297,3.0,13.0,57,0.00,,,0.00,meteohub,2013-03-02 20:46:00,
2013-03-02 14:51:00,31.6,18.1,-100.00,NW,309,4.0,13.0,57,0.00,,,0.00,meteohub,2013-03-02 20:51:00,
2013-03-02 14:56:00,31.8,18.7,-100.00,NW,314,10.0,12.0,58,0.00,,,0.00,meteohub,2013-03-02 20:56:00,
2013-03-02 15:01:00,32.0,18.1,-100.00,WNW,292,6.0,12.0,56,0.00,,,0.00,meteohub,2013-03-02 21:01:00,
2013-03-02 15:06:00,31.8,18.3,-100.00,NW,304,4.0,12.0,57,0.00,,,0.00,meteohub,2013-03-02 21:06:00,
2013-03-02 15:11:00,31.8,18.0,-100.00,NW,318,5.0,10.0,56,0.00,,,0.00,meteohub,2013-03-02 21:11:00,
2013-03-02 15:16:00,32.0,18.9,-100.00,WNW,284,4.0,10.0,58,0.00,,,0.00,meteohub,2013-03-02 21:16:00,
2013-03-02 15:21:00,32.0,18.5,-100.00,NW,307,6.0,10.0,57,0.00,,,0.00,meteohub,2013-03-02 21:21:00,
2013-03-02 15:26:00,31.8,18.3,-100.00,NW,311,11.0,11.0,57,0.00,,,0.00,meteohub,2013-03-02 21:26:00,
2013-03-02 15:31:00,31.8,17.4,-100.00,NW,309,6.0,11.0,55,0.00,,,0.00,meteohub,2013-03-02 21:31:00,
2013-03-02 15:36:00,31.8,18.0,-100.00,WNW,298,2.0,11.0,56,0.00,,,0.00,meteohub,2013-03-02 21:36:00,
2013-03-02 15:41:00,31.6,17.2,-100.00,NW,311,4.0,11.0,55,0.00,,,0.00,meteohub,2013-03-02 21:41:00,
2013-03-02 15:46:00,31.8,18.3,-100.00,NW,309,3.0,11.0,57,0.00,,,0.00,meteohub,2013-03-02 21:46:00,
2013-03-02 15:51:00,32.0,17.6,-100.00,NW,311,5.0,11.0,55,0.00,,,0.00,meteohub,2013-03-02 21:51:00,
2013-03-02 15:56:00,31.8,18.0,-100.00,NW,311,6.0,11.0,56,0.00,,,0.00,meteohub,2013-03-02 21:56:00,
2013-03-02 16:01:00,31.8,18.7,-100.00,WNW,291,4.0,10.0,58,0.00,,,0.00,meteohub,2013-03-02 22:01:00,
2013-03-02 16:06:00,31.8,18.7,-100.00,NW,306,10.0,10.0,58,0.00,,,0.00,meteohub,2013-03-02 22:06:00,
2013-03-02 16:11:00,31.5,18.9,-100.00,WNW,296,4.0,13.0,59,0.00,,,0.00,meteohub,2013-03-02 22:11:00,
2013-03-02 16:16:00,31.5,19.2,-100.00,West,277,2.0,13.0,60,0.00,,,0.00,meteohub,2013-03-02 22:16:00,
2013-03-02 16:21:00,31.5,18.9,-100.00,WSW,250,2.0,13.0,59,0.00,,,0.00,meteohub,2013-03-02 22:21:00,
2013-03-02 16:26:00,31.3,19.0,-100.00,West,264,5.0,11.0,60,0.00,,,0.00,meteohub,2013-03-02 22:26:00,
2013-03-02 16:31:00,30.9,19.0,-100.00,West,264,1.0,10.0,61,0.00,,,0.00,meteohub,2013-03-02 22:31:00,
2013-03-02 16:36:00,30.9,19.0,-100.00,WNW,290,2.0,10.0,61,0.00,,,0.00,meteohub,2013-03-02 22:36:00,
2013-03-02 16:41:00,30.9,19.0,-100.00,West,267,4.0,10.0,61,0.00,,,0.00,meteohub,2013-03-02 22:41:00,
2013-03-02 16:46:00,30.9,19.0,-100.00,WNW,301,4.0,10.0,61,0.00,,,0.00,meteohub,2013-03-02 22:46:00,
2013-03-02 16:51:00,30.7,18.9,-100.00,WNW,287,6.0,10.0,61,0.00,,,0.00,meteohub,2013-03-02 22:51:00,
2013-03-02 16:56:00,30.7,19.2,-100.00,WNW,286,6.0,9.0,62,0.00,,,0.00,meteohub,2013-03-02 22:56:00,
2013-03-02 17:01:00,30.6,19.0,-100.00,NW,313,5.0,10.0,62,0.00,,,0.00,meteohub,2013-03-02 23:01:00,
2013-03-02 17:06:00,30.6,18.7,-100.00,NW,321,2.0,10.0,61,0.00,,,0.00,meteohub,2013-03-02 23:06:00,
2013-03-02 17:11:00,30.6,19.0,-100.00,NW,310,0.0,10.0,62,0.00,,,0.00,meteohub,2013-03-02 23:11:00,
2013-03-02 17:16:00,30.6,19.0,-100.00,WNW,288,2.0,6.0,62,0.00,,,0.00,meteohub,2013-03-02 23:16:00,
2013-03-02 17:21:00,30.4,19.2,-100.00,West,261,0.0,6.0,63,0.00,,,0.00,meteohub,2013-03-02 23:21:00,
2013-03-02 17:26:00,30.4,19.2,-100.00,NW,319,3.0,5.0,63,0.00,,,0.00,meteohub,2013-03-02 23:26:00,
2013-03-02 17:31:00,30.0,18.5,-100.00,WNW,291,3.0,7.0,62,0.00,,,0.00,meteohub,2013-03-02 23:31:00,
2013-03-02 17:36:00,29.7,18.7,-100.00,WSW,238,0.0,7.0,63,0.00,,,0.00,meteohub,2013-03-02 23:36:00,
2013-03-02 17:41:00,29.5,18.5,-100.00,WNW,295,1.0,7.0,63,0.00,,,0.00,meteohub,2013-03-02 23:41:00,
2013-03-02 17:46:00,29.1,18.5,-100.00,WNW,302,3.0,7.0,64,0.00,,,0.00,meteohub,2013-03-02 23:46:00,
2013-03-02 17:51:00,28.8,18.5,-100.00,WNW,298,4.0,7.0,65,0.00,,,0.00,meteohub,2013-03-02 23:51:00,
2013-03-02 17:56:00,28.6,18.3,-100.00,WNW,300,0.0,9.0,65,0.00,,,0.00,meteohub,2013-03-02 23:56:00,
2013-03-02 18:01:00,28.2,18.0,-100.00,WNW,303,2.0,9.0,65,0.00,,,0.00,meteohub,2013-03-03 00:01:00,
2013-03-02 18:06:00,28.0,17.8,-100.00,WNW,296,0.0,9.0,65,0.00,,,0.00,meteohub,2013-03-03 00:06:00,
2013-03-02 18:12:00,27.9,18.0,-100.00,WNW,302,0.0,6.0,66,0.00,,,0.00,meteohub,2013-03-03 00:12:00,
2013-03-02 18:17:00,27.7,17.8,-100.00,WNW,284,2.0,6.0,66,0.00,,,0.00,meteohub,2013-03-03 00:17:00,
2013-03-02 18:22:00,27.5,17.6,-100.00,WNW,288,2.0,5.0,66,0.00,,,0.00,meteohub,2013-03-03 00:22:00,
2013-03-02 18:27:00,27.3,17.4,-100.00,WNW,292,0.0,5.0,66,0.00,,,0.00,meteohub,2013-03-03 00:27:00,
2013-03-02 18:32:00,27.3,17.4,-100.00,WNW,283,0.0,4.0,66,0.00,,,0.00,meteohub,2013-03-03 00:32:00,
2013-03-02 18:37:00,27.1,17.6,-100.00,West,281,0.0,4.0,67,0.00,,,0.00,meteohub,2013-03-03 00:37:00,
2013-03-02 18:42:00,27.0,17.4,-100.00,West,278,0.0,3.0,67,0.00,,,0.00,meteohub,2013-03-03 00:42:00,
2013-03-02 18:47:00,26.8,17.2,-100.00,WNW,284,0.0,3.0,67,0.00,,,0.00,meteohub,2013-03-03 00:47:00,
2013-03-02 18:52:00,26.6,17.1,-100.00,WNW,284,0.0,3.0,67,0.00,,,0.00,meteohub,2013-03-03 00:52:00,
2013-03-02 18:57:00,26.4,17.2,-100.00,WNW,287,0.0,2.0,68,0.00,,,0.00,meteohub,2013-03-03 00:57:00,
2013-03-02 19:02:00,26.4,17.2,-100.00,WNW,288,0.0,3.0,68,0.00,,,0.00,meteohub,2013-03-03 01:02:00,
2013-03-02 19:07:00,26.2,17.1,-100.00,WNW,287,0.0,3.0,68,0.00,,,0.00,meteohub,2013-03-03 01:07:00,
2013-03-02 19:12:00,26.1,17.2,-100.00,WNW,287,0.0,3.0,69,0.00,,,0.00,meteohub,2013-03-03 01:12:00,
2013-03-02 19:17:00,26.1,17.2,-100.00,WNW,290,1.0,1.0,69,0.00,,,0.00,meteohub,2013-03-03 01:17:00,
2013-03-02 19:22:00,25.9,17.1,-100.00,WNW,290,0.0,3.0,69,0.00,,,0.00,meteohub,2013-03-03 01:22:00,
2013-03-02 19:27:00,25.9,17.1,-100.00,WNW,290,0.0,3.0,69,0.00,,,0.00,meteohub,2013-03-03 01:27:00,
2013-03-02 19:32:00,25.5,16.7,-100.00,WNW,290,0.0,3.0,69,0.00,,,0.00,meteohub,2013-03-03 01:32:00,
2013-03-02 19:37:00,25.3,16.5,-100.00,WNW,290,0.0,0.0,69,0.00,,,0.00,meteohub,2013-03-03 01:37:00,
2013-03-02 19:42:00,25.2,16.3,-100.00,WNW,290,0.0,0.0,69,0.00,,,0.00,meteohub,2013-03-03 01:42:00,
2013-03-02 19:47:00,25.0,16.3,-100.00,WNW,290,0.0,0.0,69,0.00,,,0.00,meteohub,2013-03-03 01:47:00,
2013-03-02 19:52:00,25.0,16.3,-100.00,WNW,290,0.0,0.0,69,0.00,,,0.00,meteohub,2013-03-03 01:52:00,
2013-03-02 19:57:00,25.0,16.3,-100.00,WNW,290,0.0,0.0,69,0.00,,,0.00,meteohub,2013-03-03 01:57:00,
2013-03-02 20:02:00,25.0,16.0,-100.00,WNW,290,0.0,0.0,68,0.00,,,0.00,meteohub,2013-03-03 02:02:00,
2013-03-02 20:07:00,24.8,16.2,-100.00,WNW,290,0.0,0.0,69,0.00,,,0.00,meteohub,2013-03-03 02:07:00,
2013-03-02 20:12:00,24.6,16.0,-100.00,WNW,290,0.0,0.0,69,0.00,,,0.00,meteohub,2013-03-03 02:12:00,
2013-03-02 20:17:00,24.4,15.4,-100.00,WNW,290,0.0,0.0,68,0.00,,,0.00,meteohub,2013-03-03 02:17:00,
2013-03-02 20:22:00,24.4,15.4,-100.00,WNW,290,0.0,0.0,68,0.00,,,0.00,meteohub,2013-03-03 02:22:00,
2013-03-02 20:27:00,24.3,15.3,-100.00,WNW,290,0.0,0.0,68,0.00,,,0.00,meteohub,2013-03-03 02:27:00,
2013-03-02 20:32:00,24.3,15.3,-100.00,WNW,290,0.0,0.0,68,0.00,,,0.00,meteohub,2013-03-03 02:32:00,
2013-03-02 20:37:00,24.1,14.7,-100.00,WNW,290,0.0,0.0,67,0.00,,,0.00,meteohub,2013-03-03 02:37:00,
2013-03-02 20:42:00,23.7,14.4,-100.00,WNW,290,0.0,0.0,67,0.00,,,0.00,meteohub,2013-03-03 02:42:00,
2013-03-02 20:47:00,23.5,14.2,-100.00,WNW,290,0.0,0.0,67,0.00,,,0.00,meteohub,2013-03-03 02:47:00,
2013-03-02 20:52:00,23.2,14.2,-100.00,WNW,290,0.0,0.0,68,0.00,,,0.00,meteohub,2013-03-03 02:52:00,
2013-03-02 20:57:00,22.8,14.2,-100.00,WNW,290,0.0,0.0,69,0.00,,,0.00,meteohub,2013-03-03 02:57:00,
2013-03-02 21:02:00,22.6,14.0,-100.00,WNW,290,0.0,0.0,69,0.00,,,0.00,meteohub,2013-03-03 03:02:00,
2013-03-02 21:07:00,22.3,13.6,-100.00,WNW,290,0.0,0.0,69,0.00,,,0.00,meteohub,2013-03-03 03:07:00,
2013-03-02 21:12:00,21.7,13.1,-100.00,WNW,290,0.0,0.0,69,0.00,,,0.00,meteohub,2013-03-03 03:12:00,
2013-03-02 21:17:00,21.6,13.3,-100.00,WNW,290,0.0,0.0,70,0.00,,,0.00,meteohub,2013-03-03 03:17:00,
2013-03-02 21:22:00,21.2,12.9,-100.00,WNW,290,0.0,0.0,70,0.00,,,0.00,meteohub,2013-03-03 03:22:00,
2013-03-02 21:27:00,20.8,12.9,-100.00,WNW,290,0.0,0.0,71,0.00,,,0.00,meteohub,2013-03-03 03:27:00,
2013-03-02 21:32:00,20.7,13.1,-100.00,WNW,290,0.0,0.0,72,0.00,,,0.00,meteohub,2013-03-03 03:32:00,
2013-03-02 21:37:00,20.5,12.9,-100.00,WNW,290,0.0,0.0,72,0.00,,,0.00,meteohub,2013-03-03 03:37:00,
2013-03-02 21:42:00,20.5,12.9,-100.00,WNW,290,0.0,0.0,72,0.00,,,0.00,meteohub,2013-03-03 03:42:00,
2013-03-02 21:47:00,20.1,12.6,-100.00,WNW,290,0.0,0.0,72,0.00,,,0.00,meteohub,2013-03-03 03:47:00,
2013-03-02 21:52:00,19.9,12.7,-100.00,WNW,290,0.0,0.0,73,0.00,,,0.00,meteohub,2013-03-03 03:52:00,
2013-03-02 21:57:00,19.8,12.6,-100.00,WNW,290,0.0,0.0,73,0.00,,,0.00,meteohub,2013-03-03 03:57:00,
2013-03-02 22:02:00,19.6,12.6,-100.00,WNW,290,0.0,0.0,74,0.00,,,0.00,meteohub,2013-03-03 04:02:00,
2013-03-02 22:07:00,19.4,12.7,-100.00,WNW,290,0.0,0.0,75,0.00,,,0.00,meteohub,2013-03-03 04:07:00,
2013-03-02 22:12:00,19.6,12.9,-100.00,WNW,290,0.0,0.0,75,0.00,,,0.00,meteohub,2013-03-03 04:12:00,
2013-03-02 22:17:00,19.9,13.3,-100.00,WNW,290,0.0,0.0,75,0.00,,,0.00,meteohub,2013-03-03 04:17:00,
2013-03-02 22:22:00,20.5,13.5,-100.00,WNW,290,0.0,0.0,74,0.00,,,0.00,meteohub,2013-03-03 04:22:00,
2013-03-02 22:27:00,20.7,13.5,-100.00,WNW,290,0.0,0.0,73,0.00,,,0.00,meteohub,2013-03-03 04:27:00,
2013-03-02 22:32:00,20.5,13.3,-100.00,WNW,290,0.0,0.0,73,0.00,,,0.00,meteohub,2013-03-03 04:32:00,
2013-03-02 22:37:00,19.9,12.7,-100.00,WNW,290,0.0,0.0,73,0.00,,,0.00,meteohub,2013-03-03 04:37:00,
2013-03-02 22:42:00,19.8,12.6,-100.00,WNW,290,0.0,0.0,73,0.00,,,0.00,meteohub,2013-03-03 04:42:00,
2013-03-02 22:47:00,19.2,12.4,-100.00,WNW,290,0.0,0.0,74,0.00,,,0.00,meteohub,2013-03-03 04:47:00,
2013-03-02 22:52:00,19.0,12.4,-100.00,WNW,290,0.0,0.0,75,0.00,,,0.00,meteohub,2013-03-03 04:52:00,
2013-03-02 22:57:00,19.0,12.7,-100.00,WNW,290,0.0,0.0,76,0.00,,,0.00,meteohub,2013-03-03 04:57:00,
2013-03-02 23:00:00,19.0,12.7,-100.00,WNW,290,0.0,0.0,76,0.00,,,0.00,meteohub,2013-03-03 05:00:00,
2013-03-02 23:05:00,19.0,12.7,-100.00,WNW,290,0.0,0.0,76,0.00,,,0.00,meteohub,2013-03-03 05:05:00,
2013-03-02 23:10:00,18.7,12.4,-100.00,WNW,290,0.0,0.0,76,0.00,,,0.00,meteohub,2013-03-03 05:10:00,
2013-03-02 23:15:00,18.3,12.0,-100.00,WNW,290,0.0,0.0,76,0.00,,,0.00,meteohub,2013-03-03 05:15:00,
2013-03-02 23:20:00,18.1,12.2,-100.00,WNW,290,0.0,0.0,77,0.00,,,0.00,meteohub,2013-03-03 05:20:00,
2013-03-02 23:25:00,17.8,11.8,-100.00,WNW,290,0.0,0.0,77,0.00,,,0.00,meteohub,2013-03-03 05:25:00,
2013-03-02 23:30:00,17.4,11.5,-100.00,WNW,290,0.0,0.0,77,0.00,,,0.00,meteohub,2013-03-03 05:30:00,
2013-03-02 23:35:00,17.2,11.5,-100.00,WNW,290,0.0,0.0,78,0.00,,,0.00,meteohub,2013-03-03 05:35:00,
2013-03-02 23:40:00,17.2,11.8,-100.00,WNW,290,0.0,0.0,79,0.00,,,0.00,meteohub,2013-03-03 05:40:00,
2013-03-02 23:45:00,17.4,12.4,-100.00,WNW,290,0.0,0.0,80,0.00,,,0.00,meteohub,2013-03-03 05:45:00,
2013-03-02 23:50:00,17.4,12.0,-100.00,WNW,290,0.0,0.0,79,0.00,,,0.00,meteohub,2013-03-03 05:50:00,
2013-03-02 23:55:00,17.4,12.0,-100.00,WNW,290,0.0,0.0,79,0.00,,,0.00,meteohub,2013-03-03 05:55:00,